Time;durP1;ratioP1;P1;durP2;ratioP2;P2;SDS_P1;SDS_P2;PMS_P1;PMS_P2;Temp;Humidity;BMP_temperature;BMP_pressure;BME280_temperature;BME280_humidity;BME280_pressure;Samples;Min_cycle;Max_cycle;Signal;HPM_P1;HPM_P2
2022/04/03 00:01:16;;;;;;;7.03;2.65;;;4.30;99.90;;;;;;5027478;28;20033;-65
2022/04/03 00:03:41;;;;;;;4.80;2.20;;;4.30;99.90;;;;;;5017531;28;20121;-67
2022/04/03 00:06:07;;;;;;;8.80;3.15;;;4.20;99.90;;;;;;5031189;28;20033;-66
2022/04/03 00:08:33;;;;;;;6.43;2.90;;;4.20;99.90;;;;;;5014406;28;20025;-65
2022/04/03 00:10:59;;;;;;;10.20;3.55;;;4.10;99.90;;;;;;5016418;28;20042;-68
2022/04/03 00:13:26;;;;;;;9.27;2.65;;;4.10;99.90;;;;;;5019519;28;20531;-66
2022/04/03 00:15:53;;;;;;;9.82;3.17;;;4.00;99.90;;;;;;5031408;28;20076;-66
2022/04/03 00:18:18;;;;;;;7.07;2.97;;;4.00;99.90;;;;;;5033760;28;20095;-69
2022/04/03 00:20:46;;;;;;;7.95;2.83;;;3.90;99.90;;;;;;5019906;28;20022;-65
2022/04/03 00:23:12;;;;;;;7.35;3.00;;;3.80;99.90;;;;;;5016216;28;20032;-67
2022/04/03 00:25:38;;;;;;;6.63;3.20;;;3.80;99.90;;;;;;5011011;28;20038;-66
2022/04/03 00:28:04;;;;;;;5.18;2.95;;;3.70;99.90;;;;;;5020295;28;20103;-66
2022/04/03 00:30:30;;;;;;;7.38;3.45;;;3.60;99.90;;;;;;5020846;28;20449;-68
2022/04/03 00:32:55;;;;;;;10.27;4.30;;;3.60;99.90;;;;;;5024595;28;20022;-67
2022/04/03 00:35:21;;;;;;;6.68;2.78;;;3.50;99.90;;;;;;5019557;28;20072;-66
2022/04/03 00:37:47;;;;;;;11.70;4.70;;;3.50;99.90;;;;;;5018035;28;20394;-65
2022/04/03 00:40:13;;;;;;;6.35;2.95;;;3.40;99.90;;;;;;5013381;28;20030;-65
2022/04/03 00:42:39;;;;;;;6.75;3.05;;;3.40;99.90;;;;;;5011541;28;20476;-66
2022/04/03 00:45:06;;;;;;;5.78;2.92;;;3.30;99.90;;;;;;5023874;28;20033;-68
2022/04/03 00:47:33;;;;;;;6.72;3.10;;;3.30;99.90;;;;;;5011836;28;20053;-64
2022/04/03 00:49:59;;;;;;;8.20;3.38;;;3.20;99.90;;;;;;5019045;28;20030;-69
2022/04/03 00:52:25;;;;;;;7.82;3.53;;;3.20;99.90;;;;;;5021666;28;20026;-68
2022/04/03 00:54:51;;;;;;;8.07;3.55;;;3.10;99.90;;;;;;5022707;28;20044;-66
2022/04/03 00:57:18;;;;;;;7.25;3.78;;;3.10;99.90;;;;;;5019558;28;20112;-68
2022/04/03 00:59:44;;;;;;;7.18;3.20;;;3.00;99.90;;;;;;5018026;28;20034;-64
2022/04/03 01:02:11;;;;;;;6.30;3.30;;;3.00;99.90;;;;;;5022447;28;20108;-68
2022/04/03 01:04:39;;;;;;;9.10;3.13;;;3.00;99.90;;;;;;5019432;28;20021;-67
2022/04/03 01:07:06;;;;;;;7.50;3.10;;;2.90;99.90;;;;;;5021702;28;20041;-67
2022/04/03 01:09:32;;;;;;;9.18;3.55;;;2.90;99.90;;;;;;5027936;28;20041;-65
2022/04/03 01:11:58;;;;;;;9.13;3.83;;;2.90;99.90;;;;;;5024503;28;20033;-69
2022/04/03 01:14:35;;;;;;;8.93;3.78;;;2.80;99.90;;;;;;5013780;28;20026;-65
2022/04/03 01:17:02;;;;;;;8.63;3.30;;;2.80;99.90;;;;;;5011283;28;20046;-65
2022/04/03 01:19:28;;;;;;;7.88;3.65;;;2.80;99.90;;;;;;5025881;28;20508;-66
2022/04/03 01:21:54;;;;;;;9.15;3.22;;;2.70;99.90;;;;;;5015141;28;20482;-67
2022/04/03 01:24:21;;;;;;;9.85;4.03;;;2.70;99.90;;;;;;5018382;28;20029;-65
2022/04/03 01:26:48;;;;;;;7.70;3.92;;;2.60;99.90;;;;;;5021304;28;20037;-66
2022/04/03 01:29:15;;;;;;;8.32;3.50;;;2.60;99.90;;;;;;5017941;28;20437;-67
2022/04/03 01:31:41;;;;;;;9.55;4.05;;;2.60;99.90;;;;;;5015418;28;20103;-69
2022/04/03 01:34:07;;;;;;;8.48;3.60;;;2.50;99.90;;;;;;5011977;28;20038;-67
2022/04/03 01:36:33;;;;;;;14.75;4.13;;;2.50;99.90;;;;;;5020590;28;20041;-66
2022/04/03 01:38:58;;;;;;;8.77;4.15;;;2.40;99.90;;;;;;5014246;28;20036;-68
2022/04/03 01:41:24;;;;;;;9.27;3.92;;;2.40;99.90;;;;;;5025483;28;20034;-65
2022/04/03 01:43:50;;;;;;;7.90;4.78;;;2.30;99.90;;;;;;5014163;28;20041;-66
2022/04/03 01:46:15;;;;;;;10.05;3.83;;;2.30;99.90;;;;;;5028323;28;20026;-64
2022/04/03 01:48:41;;;;;;;11.02;5.53;;;2.30;99.90;;;;;;5015427;28;20051;-65
2022/04/03 01:51:06;;;;;;;10.70;5.15;;;2.30;99.90;;;;;;5032376;28;20476;-66
2022/04/03 01:53:32;;;;;;;8.75;3.80;;;2.20;99.90;;;;;;5019425;28;20030;-64
2022/04/03 01:56:05;;;;;;;10.63;3.38;;;2.20;99.90;;;;;;5010774;28;20044;-67
2022/04/03 01:58:33;;;;;;;7.20;3.10;;;2.20;99.90;;;;;;5010415;28;20037;-67
2022/04/03 02:00:59;;;;;;;7.22;3.55;;;2.10;99.90;;;;;;5022107;28;20033;-67
2022/04/03 02:03:25;;;;;;;10.13;4.22;;;2.10;99.90;;;;;;5027905;28;20038;-64
2022/04/03 02:05:51;;;;;;;10.52;3.58;;;2.10;99.90;;;;;;5024424;28;20034;-66
2022/04/03 02:08:16;;;;;;;8.93;3.33;;;2.00;99.90;;;;;;5016510;28;20036;-65
2022/04/03 02:10:42;;;;;;;6.80;3.30;;;2.00;99.90;;;;;;5020126;28;20029;-64
2022/04/03 02:13:08;;;;;;;9.32;3.30;;;1.90;99.90;;;;;;5030391;28;20120;-65
2022/04/03 02:15:34;;;;;;;8.15;3.45;;;1.90;99.90;;;;;;5029468;28;20536;-68
2022/04/03 02:17:59;;;;;;;8.32;3.22;;;1.90;99.90;;;;;;5012455;28;20466;-68
2022/04/03 02:20:25;;;;;;;8.27;3.42;;;1.80;99.90;;;;;;5016216;28;20038;-64
2022/04/03 02:22:51;;;;;;;6.50;3.08;;;1.80;99.90;;;;;;5012298;28;20100;-64
2022/04/03 02:25:17;;;;;;;8.77;3.63;;;1.80;99.90;;;;;;5011180;28;20092;-67
2022/04/03 02:27:46;;;;;;;8.40;3.70;;;1.70;99.90;;;;;;5012541;28;20033;-64
2022/04/03 02:30:12;;;;;;;8.77;3.60;;;1.70;99.90;;;;;;5012120;28;20083;-64
2022/04/03 02:32:39;;;;;;;5.90;3.25;;;1.70;99.90;;;;;;5012353;28;20022;-66
2022/04/03 02:35:06;;;;;;;11.45;4.22;;;1.70;99.90;;;;;;5012247;28;20045;-66
2022/04/03 02:37:34;;;;;;;8.93;3.90;;;1.70;99.90;;;;;;5012612;28;20062;-65
2022/04/03 02:40:00;;;;;;;6.43;3.03;;;1.60;99.90;;;;;;5012086;28;20030;-65
2022/04/03 02:42:26;;;;;;;7.82;3.10;;;1.60;99.90;;;;;;5012320;28;20049;-64
2022/04/03 02:44:52;;;;;;;6.82;3.13;;;1.60;99.90;;;;;;5012379;28;20076;-66
2022/04/03 02:47:20;;;;;;;8.07;3.03;;;1.50;99.90;;;;;;5011957;28;20041;-66
2022/04/03 02:49:46;;;;;;;7.45;3.10;;;1.50;99.90;;;;;;5012197;28;20026;-67
2022/04/03 02:52:11;;;;;;;7.45;3.20;;;1.50;99.90;;;;;;5011891;28;20160;-67
2022/04/03 02:54:37;;;;;;;7.70;3.13;;;1.50;99.90;;;;;;5007866;28;20030;-64
2022/04/03 02:57:03;;;;;;;6.43;3.47;;;1.50;99.90;;;;;;4992912;28;20031;-67
2022/04/03 02:59:29;;;;;;;7.95;3.20;;;1.40;99.90;;;;;;5011753;28;20034;-66
2022/04/03 03:01:54;;;;;;;5.70;2.60;;;1.40;99.90;;;;;;5012737;28;20030;-64
2022/04/03 03:04:20;;;;;;;6.88;3.70;;;1.40;99.90;;;;;;5012498;28;20555;-67
2022/04/03 03:06:45;;;;;;;6.60;2.83;;;1.40;99.90;;;;;;5011571;28;20026;-67
2022/04/03 03:09:11;;;;;;;6.22;2.65;;;1.30;99.90;;;;;;5016096;28;20134;-69
2022/04/03 03:11:37;;;;;;;6.18;3.05;;;1.30;99.90;;;;;;5027709;28;20029;-67
2022/04/03 03:14:02;;;;;;;6.53;3.10;;;1.30;99.90;;;;;;5013273;28;20042;-65
2022/04/03 03:16:28;;;;;;;7.90;3.08;;;1.30;99.90;;;;;;5012274;28;20096;-65
2022/04/03 03:18:54;;;;;;;7.47;3.00;;;1.30;99.90;;;;;;5011609;28;20021;-68
2022/04/03 03:21:19;;;;;;;7.45;2.72;;;1.30;99.90;;;;;;5012344;28;20109;-67
2022/04/03 03:23:45;;;;;;;8.18;3.13;;;1.20;99.90;;;;;;5011934;28;20061;-66
2022/04/03 03:26:10;;;;;;;7.43;3.15;;;1.20;99.90;;;;;;5011367;28;20064;-68
2022/04/03 03:28:36;;;;;;;7.90;2.75;;;1.20;99.90;;;;;;5012003;28;20065;-64
2022/04/03 03:31:02;;;;;;;8.73;4.38;;;1.20;99.90;;;;;;5011600;28;20034;-68
2022/04/03 03:33:27;;;;;;;11.23;3.00;;;1.20;99.90;;;;;;5012049;28;20625;-64
2022/04/03 03:35:55;;;;;;;5.78;2.72;;;1.20;99.90;;;;;;5011464;28;20080;-66
2022/04/03 03:38:20;;;;;;;5.90;2.90;;;1.20;99.90;;;;;;5014262;28;20060;-67
2022/04/03 03:40:47;;;;;;;8.07;3.05;;;1.20;99.90;;;;;;5015160;28;20054;-63
2022/04/03 03:43:12;;;;;;;7.38;2.80;;;1.20;99.90;;;;;;5015558;28;20044;-67
2022/04/03 03:45:38;;;;;;;7.35;3.15;;;1.20;99.90;;;;;;5013329;28;20120;-68
2022/04/03 03:48:04;;;;;;;6.20;3.03;;;1.20;99.90;;;;;;5015520;28;20374;-65
2022/04/03 03:50:30;;;;;;;6.03;3.30;;;1.20;99.90;;;;;;5014710;28;20029;-65
2022/04/03 03:52:56;;;;;;;9.02;3.30;;;1.20;99.90;;;;;;5010508;28;20030;-66
2022/04/03 03:55:22;;;;;;;7.72;2.80;;;1.10;99.90;;;;;;5025119;28;21694;-65
2022/04/03 03:57:48;;;;;;;10.70;3.00;;;1.10;99.90;;;;;;5015163;28;20411;-68
2022/04/03 04:00:14;;;;;;;9.77;3.70;;;1.10;99.90;;;;;;5029775;28;20072;-66
2022/04/03 04:02:40;;;;;;;7.07;2.40;;;1.10;99.90;;;;;;5014967;28;20046;-65
2022/04/03 04:05:07;;;;;;;7.22;3.20;;;1.10;99.90;;;;;;5014446;28;20434;-68
2022/04/03 04:07:39;;;;;;;7.55;3.45;;;1.10;99.90;;;;;;5000172;28;20026;-65
2022/04/03 04:10:05;;;;;;;7.90;3.20;;;1.00;99.90;;;;;;5015021;28;20109;-62
2022/04/03 04:12:31;;;;;;;8.10;3.10;;;1.10;99.90;;;;;;5014602;28;20529;-66
2022/04/03 04:14:57;;;;;;;5.80;2.90;;;1.00;99.90;;;;;;5014671;28;20026;-62
2022/04/03 04:17:23;;;;;;;5.10;2.63;;;1.00;99.90;;;;;;5012321;28;20117;-65
2022/04/03 04:19:49;;;;;;;7.53;2.97;;;1.00;99.90;;;;;;5014332;28;20060;-64
2022/04/03 04:22:16;;;;;;;7.20;2.83;;;1.00;99.90;;;;;;5014700;28;20473;-65
2022/04/03 04:24:42;;;;;;;6.60;3.00;;;1.00;99.90;;;;;;5015038;28;20057;-67
2022/04/03 04:27:08;;;;;;;8.52;3.35;;;1.00;99.90;;;;;;5014278;28;20050;-65
2022/04/03 04:29:33;;;;;;;6.20;2.67;;;1.10;99.90;;;;;;5014312;28;20045;-64
2022/04/03 04:31:59;;;;;;;10.27;3.22;;;1.00;99.90;;;;;;5015022;28;20034;-66
2022/04/03 04:34:24;;;;;;;5.70;2.38;;;1.00;99.90;;;;;;5014126;28;20113;-65
2022/04/03 04:36:50;;;;;;;8.32;3.33;;;1.00;99.90;;;;;;5014193;28;20453;-65
2022/04/03 04:39:16;;;;;;;8.00;3.20;;;1.00;99.90;;;;;;5013907;28;20034;-63
2022/04/03 04:41:42;;;;;;;8.48;3.40;;;1.00;99.90;;;;;;5014096;28;20034;-68
2022/04/03 04:44:07;;;;;;;6.07;2.75;;;1.00;99.90;;;;;;5014018;28;20034;-67
2022/04/03 04:46:33;;;;;;;5.15;2.83;;;1.00;99.90;;;;;;5013628;28;20030;-66
2022/04/03 04:48:58;;;;;;;5.63;2.83;;;1.00;99.90;;;;;;5013596;28;20514;-66
2022/04/03 04:51:24;;;;;;;7.72;3.03;;;1.00;99.90;;;;;;5014034;28;20034;-68
2022/04/03 04:53:50;;;;;;;5.68;2.65;;;1.00;99.90;;;;;;5013835;28;20042;-67
2022/04/03 04:56:15;;;;;;;4.72;2.60;;;1.00;99.90;;;;;;5013885;28;20041;-65
2022/04/03 04:58:41;;;;;;;4.97;2.80;;;1.00;99.90;;;;;;5014612;28;20463;-64
2022/04/03 05:01:07;;;;;;;8.35;2.85;;;0.90;99.90;;;;;;5013997;28;20454;-66
2022/04/03 05:03:32;;;;;;;8.02;3.00;;;1.00;99.90;;;;;;5012910;28;20064;-64
2022/04/03 05:05:58;;;;;;;7.22;3.03;;;0.90;99.90;;;;;;5013556;28;20037;-67
2022/04/03 05:08:24;;;;;;;6.20;2.88;;;0.90;99.90;;;;;;5014048;28;20034;-63
2022/04/03 05:10:50;;;;;;;8.10;3.78;;;0.90;99.90;;;;;;5013600;28;20025;-64
2022/04/03 05:13:16;;;;;;;9.13;3.72;;;0.90;99.90;;;;;;5013971;28;20116;-64
2022/04/03 05:15:41;;;;;;;7.10;2.53;;;0.90;99.90;;;;;;5013065;28;20041;-66
2022/04/03 05:18:07;;;;;;;8.15;4.15;;;1.00;99.90;;;;;;5013729;28;20454;-64
2022/04/03 05:20:33;;;;;;;8.40;3.22;;;1.00;99.90;;;;;;5012441;28;20037;-64
2022/04/03 05:22:59;;;;;;;5.43;2.75;;;1.00;99.90;;;;;;5013838;28;20406;-65
2022/04/03 05:25:25;;;;;;;9.63;3.58;;;1.00;99.90;;;;;;5013195;28;20034;-65
2022/04/03 05:27:50;;;;;;;6.25;2.53;;;1.10;99.90;;;;;;5013506;28;20100;-66
2022/04/03 05:30:16;;;;;;;7.80;3.03;;;1.10;99.90;;;;;;5011799;28;20030;-66
2022/04/03 05:32:42;;;;;;;6.53;3.03;;;1.10;99.90;;;;;;5013039;28;20029;-64
2022/04/03 05:35:13;;;;;;;6.45;3.10;;;1.20;99.90;;;;;;5013639;28;20041;-67
2022/04/03 05:37:39;;;;;;;6.68;3.05;;;1.20;99.90;;;;;;5013703;28;20064;-66
2022/04/03 05:40:05;;;;;;;6.50;2.85;;;1.20;99.90;;;;;;5013166;28;20101;-67
2022/04/03 05:42:33;;;;;;;18.52;6.18;;;1.20;99.90;;;;;;5012728;28;20072;-65
2022/04/03 05:44:59;;;;;;;20.30;7.95;;;1.30;99.90;;;;;;5012615;28;20033;-67
2022/04/03 05:47:24;;;;;;;17.30;7.05;;;1.30;99.90;;;;;;5012798;28;20037;-65
2022/04/03 05:49:50;;;;;;;16.88;6.15;;;1.30;99.90;;;;;;5008328;28;20374;-66
2022/04/03 05:52:16;;;;;;;11.98;5.10;;;1.40;99.90;;;;;;5004626;28;20486;-66
2022/04/03 05:54:41;;;;;;;13.60;4.85;;;1.50;99.90;;;;;;5012652;28;20049;-67
2022/04/03 05:57:09;;;;;;;11.32;4.20;;;1.50;99.90;;;;;;5023108;28;20091;-66
2022/04/03 05:59:34;;;;;;;7.72;3.40;;;1.60;99.90;;;;;;5012091;28;20073;-65
2022/04/03 06:02:00;;;;;;;8.27;3.47;;;1.70;99.90;;;;;;5012847;28;20486;-66
2022/04/03 06:04:26;;;;;;;10.93;4.70;;;1.80;99.90;;;;;;5012219;28;20057;-63
2022/04/03 06:06:51;;;;;;;24.88;5.90;;;1.80;99.90;;;;;;5012974;28;20481;-64
2022/04/03 06:09:17;;;;;;;12.20;5.88;;;1.90;99.90;;;;;;5012514;28;20461;-65
2022/04/03 06:11:43;;;;;;;10.85;3.90;;;2.10;99.90;;;;;;5012558;28;20057;-64
2022/04/03 06:14:10;;;;;;;10.45;4.07;;;2.30;99.90;;;;;;5012064;28;20033;-67
2022/04/03 06:16:35;;;;;;;10.07;4.57;;;2.60;99.90;;;;;;5012138;28;20528;-69
2022/04/03 06:19:01;;;;;;;8.43;3.90;;;2.70;99.90;;;;;;5010455;28;20076;-67
2022/04/03 06:21:26;;;;;;;13.85;4.22;;;2.90;99.90;;;;;;5012807;28;20145;-66
2022/04/03 06:23:52;;;;;;;7.18;3.50;;;3.00;99.90;;;;;;5012823;28;20469;-65
2022/04/03 06:26:18;;;;;;;7.00;3.35;;;3.10;99.90;;;;;;5012026;28;20510;-63
2022/04/03 06:28:44;;;;;;;7.63;3.33;;;3.30;99.90;;;;;;5012415;28;20172;-66
2022/04/03 06:31:10;;;;;;;11.63;4.20;;;3.40;99.90;;;;;;5010639;28;20429;-66
2022/04/03 06:33:36;;;;;;;12.10;5.50;;;3.40;99.90;;;;;;5012016;28;20473;-64
2022/04/03 06:36:03;;;;;;;10.80;4.40;;;3.60;99.90;;;;;;5012438;28;20163;-67
2022/04/03 06:38:29;;;;;;;10.38;4.35;;;3.60;99.90;;;;;;5012855;28;20132;-67
2022/04/03 06:40:58;;;;;;;11.75;4.80;;;3.70;99.90;;;;;;5012142;28;20034;-66
2022/04/03 06:43:28;;;;;;;11.63;4.30;;;3.80;99.90;;;;;;5011951;28;20041;-68
2022/04/03 06:45:55;;;;;;;12.98;4.75;;;3.90;99.90;;;;;;5012373;28;20037;-67
2022/04/03 06:48:22;;;;;;;12.32;4.60;;;3.90;99.90;;;;;;5012566;28;20438;-68
2022/04/03 06:50:48;;;;;;;15.52;6.10;;;4.00;99.90;;;;;;5012091;28;20041;-69
2022/04/03 06:53:13;;;;;;;10.77;4.15;;;4.10;99.90;;;;;;5012279;28;20109;-69
2022/04/03 06:55:39;;;;;;;9.48;3.80;;;4.20;99.90;;;;;;5012035;28;20030;-65
2022/04/03 06:58:05;;;;;;;10.35;3.45;;;4.30;99.90;;;;;;5011994;28;20052;-64
2022/04/03 07:00:30;;;;;;;10.13;4.32;;;4.30;99.90;;;;;;5011995;28;20449;-69
2022/04/03 07:02:56;;;;;;;7.78;3.42;;;4.50;99.90;;;;;;5012108;28;20030;-65
2022/04/03 07:05:22;;;;;;;6.93;3.03;;;4.80;99.90;;;;;;5012819;28;20099;-67
2022/04/03 07:07:51;;;;;;;6.20;3.22;;;5.10;99.90;;;;;;5012140;28;20117;-66
2022/04/03 07:10:17;;;;;;;7.05;3.30;;;5.40;99.90;;;;;;5012370;28;20034;-68
2022/04/03 07:12:42;;;;;;;5.55;2.10;;;5.60;99.90;;;;;;5012849;28;20156;-66
2022/04/03 07:15:11;;;;;;;9.07;3.60;;;5.90;99.90;;;;;;5015446;28;20050;-68
2022/04/03 07:17:40;;;;;;;8.55;3.20;;;6.00;99.90;;;;;;5016009;28;20112;-68
2022/04/03 07:20:07;;;;;;;8.88;3.08;;;6.30;99.90;;;;;;5015911;28;20049;-67
2022/04/03 07:22:33;;;;;;;6.38;3.28;;;6.40;99.90;;;;;;5015380;28;20072;-69
2022/04/03 07:24:59;;;;;;;12.68;4.45;;;6.50;99.90;;;;;;5014945;28;20556;-67
2022/04/03 07:27:24;;;;;;;13.80;4.78;;;6.60;99.90;;;;;;5030520;28;20467;-68
2022/04/03 07:29:50;;;;;;;9.77;4.20;;;6.70;99.90;;;;;;5015626;28;20362;-65
2022/04/03 07:32:15;;;;;;;5.20;2.38;;;6.80;99.90;;;;;;5023599;28;20065;-65
2022/04/03 07:34:41;;;;;;;7.55;3.13;;;6.90;99.90;;;;;;5015204;28;20042;-64
2022/04/03 07:37:06;;;;;;;9.88;2.97;;;7.00;99.90;;;;;;5015065;28;20030;-65
2022/04/03 07:39:32;;;;;;;6.40;2.40;;;7.20;99.90;;;;;;5014718;28;20045;-68
2022/04/03 07:41:58;;;;;;;2.65;1.70;;;7.40;99.90;;;;;;5015730;28;20037;-65
2022/04/03 07:44:23;;;;;;;7.25;2.78;;;7.50;99.90;;;;;;5026565;28;20492;-69
2022/04/03 07:46:49;;;;;;;8.60;2.78;;;7.60;99.90;;;;;;5015182;28;20030;-67
2022/04/03 07:49:15;;;;;;;6.72;2.20;;;7.80;99.90;;;;;;5015514;28;20036;-67
2022/04/03 07:51:40;;;;;;;4.53;1.77;;;7.90;99.90;;;;;;5013732;28;20042;-69
2022/04/03 07:54:06;;;;;;;3.80;1.83;;;8.00;99.90;;;;;;5015106;28;20033;-68
2022/04/03 07:56:32;;;;;;;3.50;1.85;;;8.10;99.90;;;;;;5015037;28;20073;-66
2022/04/03 07:58:57;;;;;;;6.95;2.20;;;8.10;99.90;;;;;;5014058;28;20034;-68
2022/04/03 08:01:23;;;;;;;4.32;1.17;;;8.10;99.90;;;;;;5014872;28;20506;-65
2022/04/03 08:03:49;;;;;;;3.38;1.20;;;8.10;99.90;;;;;;5014649;28;20068;-66
2022/04/03 08:06:15;;;;;;;6.40;2.20;;;8.10;99.90;;;;;;5014593;28;20025;-67
2022/04/03 08:08:41;;;;;;;8.02;2.78;;;8.00;99.90;;;;;;5014444;28;20481;-66
2022/04/03 08:11:07;;;;;;;4.88;1.38;;;7.90;99.90;;;;;;5014826;28;20029;-66
2022/04/03 08:13:33;;;;;;;2.72;0.98;;;7.80;99.90;;;;;;5013085;28;20026;-68
2022/04/03 08:16:01;;;;;;;6.80;2.33;;;7.60;99.90;;;;;;5014687;28;20038;-67
2022/04/03 08:18:26;;;;;;;3.35;1.08;;;7.40;99.90;;;;;;5012798;28;20037;-67
2022/04/03 08:20:52;;;;;;;5.35;1.88;;;7.30;99.90;;;;;;5014081;28;20707;-67
2022/04/03 08:23:17;;;;;;;6.95;2.40;;;7.10;99.90;;;;;;5014237;28;20105;-67
2022/04/03 08:25:45;;;;;;;7.18;1.58;;;6.90;99.90;;;;;;5014199;28;20052;-66
2022/04/03 08:28:11;;;;;;;10.73;3.35;;;6.80;99.90;;;;;;5014300;28;20096;-66
2022/04/03 08:30:38;;;;;;;3.50;1.00;;;6.60;99.90;;;;;;5013831;28;20441;-66
2022/04/03 08:33:06;;;;;;;4.70;2.00;;;6.60;99.90;;;;;;5014046;28;20044;-67
2022/04/03 08:35:38;;;;;;;5.90;1.60;;;6.60;99.90;;;;;;5013972;28;20078;-66
2022/04/03 08:38:05;;;;;;;4.18;1.40;;;6.70;99.90;;;;;;5018211;28;20030;-68
2022/04/03 08:40:31;;;;;;;2.63;1.10;;;6.80;99.90;;;;;;5014619;28;20054;-68
2022/04/03 08:42:57;;;;;;;4.75;1.48;;;7.10;99.90;;;;;;5012006;28;20410;-67
2022/04/03 08:45:25;;;;;;;2.45;1.05;;;7.50;99.90;;;;;;5013634;28;20038;-66
2022/04/03 08:47:53;;;;;;;4.50;1.70;;;7.60;99.90;;;;;;5013454;28;20105;-63
2022/04/03 08:50:23;;;;;;;4.25;1.60;;;7.70;99.90;;;;;;5013651;28;20478;-65
2022/04/03 08:52:51;;;;;;;4.10;1.38;;;7.70;99.90;;;;;;5012565;28;20030;-65
2022/04/03 08:55:19;;;;;;;2.50;1.48;;;7.80;99.90;;;;;;5011121;28;20052;-65
2022/04/03 08:57:45;;;;;;;4.78;1.38;;;7.90;99.90;;;;;;5017975;28;20038;-67
2022/04/03 09:00:13;;;;;;;5.43;1.73;;;8.00;99.90;;;;;;5011156;28;20136;-66
2022/04/03 09:02:40;;;;;;;4.07;1.50;;;8.20;99.90;;;;;;5007840;28;20037;-66
2022/04/03 09:05:06;;;;;;;2.92;1.25;;;8.40;99.90;;;;;;5009335;28;20041;-67
2022/04/03 09:07:32;;;;;;;3.13;1.48;;;8.70;99.90;;;;;;5016284;28;20038;-65
2022/04/03 09:10:05;;;;;;;7.00;1.90;;;8.90;99.90;;;;;;5010190;28;20121;-65
2022/04/03 09:12:31;;;;;;;4.72;1.70;;;9.10;99.90;;;;;;5008185;28;20467;-67
2022/04/03 09:14:58;;;;;;;5.32;1.63;;;9.20;99.90;;;;;;5013569;28;20081;-67
2022/04/03 09:17:42;;;;;;;6.35;1.40;;;9.50;99.90;;;;;;5012818;28;20030;-67
2022/04/03 09:20:09;;;;;;;4.07;1.48;;;10.00;99.90;;;;;;5019471;28;20133;-66
2022/04/03 09:22:36;;;;;;;3.67;1.13;;;10.30;99.90;;;;;;5016664;28;20105;-66
2022/04/03 09:25:06;;;;;;;4.50;1.33;;;10.50;99.90;;;;;;5013064;28;20042;-65
2022/04/03 09:27:34;;;;;;;3.15;1.38;;;10.60;99.90;;;;;;5008518;28;20362;-66
2022/04/03 09:30:07;;;;;;;5.28;1.80;;;10.60;99.90;;;;;;5005806;28;20033;-66
2022/04/03 09:32:34;;;;;;;6.70;1.33;;;10.50;99.90;;;;;;5015716;28;20033;-67
2022/04/03 09:35:00;;;;;;;5.10;1.35;;;10.30;99.90;;;;;;5010791;28;20095;-67
2022/04/03 09:37:27;;;;;;;2.85;1.02;;;9.90;99.90;;;;;;5009138;28;20481;-65
2022/04/03 09:39:53;;;;;;;4.68;1.70;;;9.60;99.90;;;;;;5018923;28;20378;-67
2022/04/03 09:42:19;;;;;;;6.50;1.58;;;9.30;99.90;;;;;;5012523;28;20022;-66
2022/04/03 09:44:46;;;;;;;4.20;1.42;;;9.10;99.90;;;;;;5002307;28;20034;-66
2022/04/03 09:47:26;;;;;;;2.33;1.42;;;9.00;99.90;;;;;;5012558;28;20102;-65
2022/04/03 09:49:59;;;;;;;5.95;1.83;;;8.90;99.90;;;;;;5009392;28;20026;-67
2022/04/03 09:52:43;;;;;;;2.88;1.60;;;8.90;99.90;;;;;;5011509;28;20030;-65
2022/04/03 09:55:17;;;;;;;2.35;1.60;;;9.30;99.90;;;;;;5013042;28;20042;-68
2022/04/03 09:57:47;;;;;;;3.75;2.13;;;9.90;99.90;;;;;;5016138;28;20022;-66
2022/04/03 10:00:41;;;;;;;8.90;2.00;;;10.20;99.90;;;;;;5012513;28;20196;-66
2022/04/03 10:03:10;;;;;;;6.32;2.33;;;10.40;99.90;;;;;;5012462;28;20030;-67
2022/04/03 10:05:36;;;;;;;4.30;2.05;;;10.50;99.90;;;;;;5012821;28;20072;-68
2022/04/03 10:08:04;;;;;;;4.15;1.67;;;10.80;99.90;;;;;;5011997;28;20040;-65
2022/04/03 10:10:30;;;;;;;5.85;1.83;;;11.10;99.90;;;;;;5011069;28;20474;-68
2022/04/03 10:12:58;;;;;;;3.67;1.63;;;11.20;99.90;;;;;;5011541;28;20033;-67
2022/04/03 10:15:24;;;;;;;6.93;1.70;;;11.10;99.90;;;;;;5010198;28;20465;-65
2022/04/03 10:17:50;;;;;;;1.80;1.20;;;10.90;99.90;;;;;;5012091;28;20421;-66
2022/04/03 10:20:16;;;;;;;5.88;1.48;;;10.50;99.90;;;;;;5000368;28;20107;-66
2022/04/03 10:22:45;;;;;;;2.70;1.10;;;10.00;99.90;;;;;;5008334;28;20368;-66
2022/04/03 10:25:14;;;;;;;1.48;0.93;;;9.70;99.90;;;;;;5013245;28;20037;-66
2022/04/03 10:27:42;;;;;;;5.18;1.00;;;9.40;99.90;;;;;;5012583;28;20038;-65
2022/04/03 10:30:10;;;;;;;3.78;1.50;;;9.40;99.90;;;;;;5012499;28;20029;-66
2022/04/03 10:32:36;;;;;;;2.67;1.00;;;9.40;99.90;;;;;;5010690;28;20026;-65
2022/04/03 10:35:08;;;;;;;3.80;1.27;;;9.50;99.90;;;;;;5013047;28;20042;-66
2022/04/03 10:37:37;;;;;;;3.65;1.30;;;9.70;99.90;;;;;;5011671;28;20030;-65
2022/04/03 10:40:03;;;;;;;2.65;1.35;;;10.50;99.90;;;;;;5011913;28;20030;-65
2022/04/03 10:42:30;;;;;;;1.98;0.90;;;11.60;99.90;;;;;;5011578;28;20071;-66
2022/04/03 10:45:11;;;;;;;2.08;0.82;;;12.30;99.90;;;;;;5010849;28;20367;-66
2022/04/03 10:47:36;;;;;;;2.03;0.55;;;12.90;99.90;;;;;;5014180;28;20406;-65
2022/04/03 10:50:05;;;;;;;1.30;0.60;;;13.60;99.90;;;;;;5015346;28;20038;-66
2022/04/03 10:52:36;;;;;;;2.70;0.52;;;14.20;98.30;;;;;;5015577;28;20034;-65
2022/04/03 10:55:30;;;;;;;0.80;0.60;;;14.50;98.00;;;;;;5029698;28;20049;-65
2022/04/03 10:58:04;;;;;;;3.05;0.50;;;14.60;97.90;;;;;;5029978;28;20120;-65
2022/04/03 11:00:30;;;;;;;3.55;0.55;;;14.80;96.50;;;;;;5026858;28;20064;-65
2022/04/03 11:02:55;;;;;;;1.35;0.60;;;14.80;95.50;;;;;;5025817;28;20057;-65
2022/04/03 11:05:26;;;;;;;4.43;0.73;;;15.00;95.40;;;;;;5021847;28;20029;-65
2022/04/03 11:08:02;;;;;;;5.53;1.17;;;15.30;94.60;;;;;;5031830;28;20030;-65
2022/04/03 11:10:48;;;;;;;0.82;0.60;;;15.50;94.40;;;;;;5021764;28;20368;-65
2022/04/03 11:13:15;;;;;;;1.95;0.65;;;16.10;93.20;;;;;;5029043;28;20036;-65
2022/04/03 11:16:03;;;;;;;2.47;0.88;;;16.70;91.50;;;;;;5031936;28;20041;-66
2022/04/03 11:18:33;;;;;;;4.53;1.30;;;17.50;89.90;;;;;;5007585;28;20044;-66
2022/04/03 11:21:20;;;;;;;3.10;1.88;;;18.10;86.50;;;;;;5025034;28;20030;-66
2022/04/03 11:24:12;;;;;;;3.13;0.90;;;18.90;83.80;;;;;;5031243;28;20025;-65
2022/04/03 11:26:39;;;;;;;2.53;0.95;;;19.10;81.00;;;;;;5018350;28;20045;-67
2022/04/03 11:29:07;;;;;;;2.17;0.77;;;18.70;80.20;;;;;;5026760;28;20033;-66
2022/04/03 11:31:34;;;;;;;3.15;1.00;;;18.10;80.80;;;;;;5020153;28;20065;-66
2022/04/03 11:34:00;;;;;;;1.88;1.00;;;18.20;81.80;;;;;;5031737;28;20025;-66
2022/04/03 11:36:28;;;;;;;2.40;0.90;;;19.00;80.40;;;;;;5021171;28;20041;-65
2022/04/03 11:38:54;;;;;;;2.10;0.82;;;19.60;78.50;;;;;;5025180;28;20061;-66
2022/04/03 11:41:31;;;;;;;1.75;0.77;;;20.10;75.30;;;;;;5027950;28;20025;-65
2022/04/03 11:44:11;;;;;;;1.70;0.98;;;20.80;75.50;;;;;;5016913;28;20467;-66
2022/04/03 11:46:41;;;;;;;3.97;0.50;;;21.40;73.50;;;;;;5033284;28;20056;-65
2022/04/03 11:49:14;;;;;;;2.78;0.60;;;21.00;71.10;;;;;;5031928;28;20029;-65
2022/04/03 11:51:40;;;;;;;1.38;0.60;;;20.80;71.70;;;;;;5018578;28;20064;-66
2022/04/03 11:54:06;;;;;;;3.70;1.00;;;20.30;71.80;;;;;;5031456;28;20496;-65
2022/04/03 11:56:35;;;;;;;1.48;0.80;;;19.60;72.90;;;;;;5021237;28;20041;-66
2022/04/03 11:59:03;;;;;;;4.93;1.20;;;18.80;73.90;;;;;;5018141;28;20419;-65
2022/04/03 12:01:33;;;;;;;1.65;0.45;;;18.60;76.30;;;;;;5033490;28;20127;-66
2022/04/03 12:04:15;;;;;;;1.38;0.60;;;19.10;75.90;;;;;;5030744;28;20052;-66
2022/04/03 12:06:46;;;;;;;1.20;0.47;;;19.90;74.80;;;;;;5022698;28;20021;-65
2022/04/03 12:09:14;;;;;;;1.55;0.50;;;20.30;74.30;;;;;;5022708;28;20100;-66
2022/04/03 12:11:52;;;;;;;2.03;0.70;;;20.60;75.10;;;;;;5030422;28;20047;-65
2022/04/03 12:14:32;;;;;;;2.00;0.80;;;21.10;73.30;;;;;;5018955;28;20021;-66
2022/04/03 12:17:02;;;;;;;2.58;0.95;;;21.00;72.90;;;;;;5024931;28;20069;-66
2022/04/03 12:19:33;;;;;;;1.90;0.60;;;21.20;72.50;;;;;;5027695;28;20030;-66
2022/04/03 12:22:02;;;;;;;3.58;0.70;;;21.30;70.90;;;;;;5028814;28;20050;-66
2022/04/03 12:24:30;;;;;;;2.85;0.60;;;21.40;71.40;;;;;;5009222;28;20095;-66
2022/04/03 12:27:01;;;;;;;1.75;0.70;;;21.80;70.90;;;;;;5024462;28;20050;-66
2022/04/03 12:29:30;;;;;;;3.30;0.60;;;22.20;69.00;;;;;;5028324;28;20462;-66
2022/04/03 12:32:06;;;;;;;4.00;1.10;;;22.50;68.50;;;;;;5030172;28;20553;-66
2022/04/03 12:34:34;;;;;;;1.42;0.70;;;22.70;68.50;;;;;;5016487;28;20034;-66
2022/04/03 12:37:01;;;;;;;3.67;1.20;;;23.10;67.10;;;;;;5024404;28;20432;-66
2022/04/03 12:39:37;;;;;;;1.42;0.60;;;23.10;66.40;;;;;;5019517;28;20100;-66
2022/04/03 12:42:22;;;;;;;3.03;0.70;;;22.80;64.40;;;;;;5029518;28;20040;-66
2022/04/03 12:44:50;;;;;;;3.47;0.70;;;22.80;64.10;;;;;;5022719;28;20025;-66
2022/04/03 12:47:28;;;;;;;2.92;0.68;;;22.60;64.10;;;;;;5018031;28;20470;-66
2022/04/03 12:50:05;;;;;;;2.00;0.70;;;22.40;63.80;;;;;;5029677;28;20029;-66
2022/04/03 12:52:50;;;;;;;1.52;0.50;;;21.70;64.10;;;;;;5020282;28;20025;-64
2022/04/03 12:55:22;;;;;;;4.55;0.60;;;20.70;65.80;;;;;;5020502;28;20538;-68